createdAt,value
2019-05-18T00:00:34.115Z,12.73
2019-05-18T00:01:34.096Z,12.73
2019-05-18T00:02:34.117Z,12.53
2019-05-18T00:03:34.078Z,12.71
2019-05-18T00:04:34.084Z,12.61
2019-05-18T00:05:34.048Z,12.62
2019-05-18T00:06:34.038Z,12.69
2019-05-18T00:07:34.062Z,12.54
2019-05-18T00:08:34.018Z,12.65
2019-05-18T00:09:34.032Z,12.81
2019-05-18T00:10:33.997Z,12.61
2019-05-18T00:11:33.998Z,12.66
2019-05-18T00:12:34.000Z,12.53
2019-05-18T00:13:33.967Z,12.50
2019-05-18T00:14:33.958Z,12.51
2019-05-18T00:15:33.945Z,12.66
2019-05-18T00:16:33.929Z,12.48
2019-05-18T00:17:33.944Z,12.53
2019-05-18T00:18:33.906Z,12.47
2019-05-18T00:19:33.895Z,12.68
2019-05-18T00:20:33.889Z,12.62
2019-05-18T00:21:33.872Z,12.58
2019-05-18T00:22:33.889Z,12.47
2019-05-18T00:23:33.853Z,12.44
2019-05-18T00:24:33.843Z,12.48
2019-05-18T00:25:33.852Z,12.48
2019-05-18T00:26:33.833Z,12.55
2019-05-18T00:27:33.839Z,12.38
2019-05-18T00:28:33.802Z,12.50
2019-05-18T00:29:33.780Z,12.43
2019-05-18T00:30:33.773Z,12.47
2019-05-18T00:31:33.766Z,12.41
2019-05-18T00:32:33.780Z,12.48
2019-05-18T00:33:33.833Z,12.33
2019-05-18T00:34:33.729Z,12.44
2019-05-18T00:35:33.716Z,12.40
2019-05-18T00:36:33.706Z,12.32
2019-05-18T00:37:33.691Z,12.36
2019-05-18T00:38:33.707Z,12.40
2019-05-18T00:39:33.699Z,12.41
2019-05-18T00:40:33.658Z,12.38
2019-05-18T00:41:33.650Z,12.36
2019-05-18T00:42:33.639Z,12.40
2019-05-18T00:43:33.666Z,12.38
2019-05-18T00:44:33.613Z,12.28
2019-05-18T00:45:33.603Z,12.35
2019-05-18T00:46:33.592Z,12.33
2019-05-18T00:47:41.199Z,12.47
2019-05-18T00:48:34.629Z,12.30
2019-05-18T00:49:33.559Z,12.33
2019-05-18T00:50:33.578Z,12.40
2019-05-18T00:51:33.556Z,12.40
2019-05-18T00:52:33.548Z,12.32
2019-05-18T00:53:33.546Z,12.35
2019-05-18T00:54:33.518Z,12.47
2019-05-18T00:55:33.490Z,12.32
2019-05-18T00:56:33.481Z,12.23
2019-05-18T00:57:33.469Z,12.22
2019-05-18T00:58:33.503Z,12.23
2019-05-18T00:59:33.461Z,12.35
2019-05-18T01:00:33.546Z,12.30
2019-05-18T01:01:33.429Z,12.23
2019-05-18T01:02:33.495Z,12.32
2019-05-18T01:03:33.439Z,12.13
2019-05-18T01:04:33.470Z,12.28
2019-05-18T01:05:33.394Z,12.25
2019-05-18T01:06:33.425Z,12.32
2019-05-18T01:07:33.361Z,12.28
2019-05-18T01:08:33.360Z,12.29
2019-05-18T01:09:33.387Z,12.28
2019-05-18T01:10:33.328Z,12.26
2019-05-18T01:11:33.316Z,12.18
2019-05-18T01:12:33.323Z,12.26
2019-05-18T01:13:33.337Z,12.11
2019-05-18T01:14:33.311Z,12.18
2019-05-18T01:15:33.288Z,12.22
2019-05-18T01:16:33.265Z,12.17
2019-05-18T01:17:33.254Z,12.17
2019-05-18T01:18:33.261Z,12.10
2019-05-18T01:19:33.259Z,12.15
2019-05-18T01:20:33.223Z,11.93
2019-05-18T01:21:33.206Z,11.99
2019-05-18T01:22:33.205Z,11.99
2019-05-18T01:23:33.185Z,12.00
2019-05-18T01:24:33.194Z,12.00
2019-05-18T01:25:33.159Z,11.97
2019-05-18T01:26:33.149Z,11.87
2019-05-18T01:27:33.141Z,11.89
2019-05-18T01:28:33.127Z,11.88
2019-05-18T01:29:33.150Z,11.84
2019-05-18T01:30:33.109Z,11.79
2019-05-18T01:31:33.095Z,11.79
2019-05-18T01:32:33.079Z,11.88
2019-05-18T01:33:33.073Z,11.79
2019-05-18T01:34:33.090Z,11.79
2019-05-18T01:35:33.048Z,11.77
2019-05-18T01:36:33.042Z,11.85
2019-05-18T01:37:33.031Z,11.79
2019-05-18T01:38:33.019Z,11.85
2019-05-18T01:39:33.040Z,11.84
2019-05-18T01:40:33.022Z,11.76
2019-05-18T01:41:32.984Z,11.74
2019-05-18T01:42:32.973Z,11.73
2019-05-18T01:43:32.961Z,11.77
2019-05-18T01:44:32.954Z,11.73
2019-05-18T01:45:32.966Z,11.64
2019-05-18T01:46:32.937Z,11.59
2019-05-18T01:47:32.918Z,11.54
2019-05-18T01:48:32.916Z,11.69
2019-05-18T01:49:32.898Z,11.59
2019-05-18T01:50:32.912Z,11.69
2019-05-18T01:51:32.882Z,11.73
2019-05-18T01:52:32.864Z,11.70
2019-05-18T01:53:32.848Z,11.62
2019-05-18T01:54:32.838Z,11.71
2019-05-18T01:55:32.850Z,11.69
2019-05-18T01:56:32.818Z,11.69
2019-05-18T01:57:32.809Z,11.74
2019-05-18T01:58:32.798Z,11.74
2019-05-18T01:59:32.789Z,11.70
2019-05-18T02:00:32.797Z,11.69
2019-05-18T02:01:32.758Z,11.59
2019-05-18T02:02:32.753Z,11.73
2019-05-18T02:03:32.742Z,11.67
2019-05-18T02:04:32.726Z,11.70
2019-05-18T02:05:32.745Z,11.76
2019-05-18T02:06:32.715Z,11.76
2019-05-18T02:07:32.704Z,11.67
2019-05-18T02:08:32.692Z,11.80
2019-05-18T02:09:32.770Z,11.82
2019-05-18T02:10:32.690Z,11.66
2019-05-18T02:11:32.770Z,11.69
2019-05-18T02:12:32.641Z,11.69
2019-05-18T02:13:32.644Z,11.76
2019-05-18T02:14:32.617Z,11.73
2019-05-18T02:15:32.642Z,11.76
2019-05-18T02:16:32.619Z,11.71
2019-05-18T02:17:32.585Z,11.66
2019-05-18T02:18:32.574Z,11.64
2019-05-18T02:19:32.566Z,11.70
2019-05-18T02:20:32.596Z,11.69
2019-05-18T02:21:32.545Z,11.64
2019-05-18T02:22:32.528Z,11.64
2019-05-18T02:23:32.526Z,11.56
2019-05-18T02:24:32.512Z,11.61
2019-05-18T02:25:32.531Z,11.58
2019-05-18T02:26:32.515Z,11.61
2019-05-18T02:27:32.475Z,11.54
2019-05-18T02:28:32.462Z,11.43
2019-05-18T02:29:32.454Z,11.56
2019-05-18T02:30:32.447Z,11.66
2019-05-18T02:31:32.466Z,11.55
2019-05-18T02:32:32.427Z,11.61
2019-05-18T02:33:32.408Z,11.49
2019-05-18T02:34:32.398Z,11.55
2019-05-18T02:35:32.389Z,11.46
2019-05-18T02:36:32.411Z,11.54
2019-05-18T02:37:32.366Z,11.46
2019-05-18T02:38:32.353Z,11.54
2019-05-18T02:39:32.339Z,11.52
2019-05-18T02:40:32.329Z,11.48
2019-05-18T02:41:32.346Z,11.49
2019-05-18T02:42:32.326Z,11.55
2019-05-18T02:43:32.299Z,11.49
2019-05-18T02:44:32.290Z,11.45
2019-05-18T02:45:32.286Z,11.51
2019-05-18T02:46:32.260Z,11.46
2019-05-18T02:47:32.276Z,11.51
2019-05-18T02:48:47.797Z,11.37
2019-05-18T02:49:33.236Z,11.46
2019-05-18T02:50:32.226Z,11.48
2019-05-18T02:51:32.208Z,11.38
2019-05-18T02:52:32.222Z,11.36
2019-05-18T02:53:32.186Z,11.40
2019-05-18T02:54:32.215Z,11.28
2019-05-18T02:55:32.170Z,11.38
2019-05-18T02:56:32.152Z,11.31
2019-05-18T02:57:32.166Z,11.30
2019-05-18T02:58:32.135Z,11.37
2019-05-18T02:59:32.115Z,11.31
2019-05-18T03:00:32.110Z,11.25
2019-05-18T03:01:32.099Z,11.30
2019-05-18T03:02:32.121Z,11.34
2019-05-18T03:03:32.078Z,11.38
2019-05-18T03:04:32.064Z,11.31
2019-05-18T03:05:32.066Z,11.15
2019-05-18T03:06:32.043Z,11.27
2019-05-18T03:07:32.059Z,11.28
2019-05-18T03:08:32.020Z,11.28
2019-05-18T03:09:32.111Z,11.19
2019-05-18T03:10:32.002Z,11.12
2019-05-18T03:11:31.979Z,11.25
2019-05-18T03:12:31.999Z,11.19
2019-05-18T03:13:31.962Z,11.05
2019-05-18T03:14:31.953Z,11.22
2019-05-18T03:15:31.941Z,11.16
2019-05-18T03:16:31.937Z,11.12
2019-05-18T03:17:31.918Z,11.18
2019-05-18T03:18:31.931Z,11.19
2019-05-18T03:19:31.892Z,11.18
2019-05-18T03:20:31.880Z,11.09
2019-05-18T03:21:31.869Z,11.15
2019-05-18T03:22:31.872Z,11.20
2019-05-18T03:23:31.899Z,11.19
2019-05-18T03:24:31.835Z,11.12
2019-05-18T03:25:31.825Z,11.19
2019-05-18T03:26:31.819Z,11.18
2019-05-18T03:27:31.813Z,11.13
2019-05-18T03:28:31.827Z,11.13
2019-05-18T03:29:31.785Z,11.12
2019-05-18T03:30:31.777Z,11.15
2019-05-18T03:31:31.763Z,11.15
2019-05-18T03:32:31.751Z,11.13
2019-05-18T03:33:31.765Z,11.15
2019-05-18T03:34:31.763Z,11.15
2019-05-18T03:35:31.717Z,11.13
2019-05-18T03:36:31.697Z,11.12
2019-05-18T03:37:31.687Z,11.11
2019-05-18T03:38:31.702Z,11.15
2019-05-18T03:39:31.670Z,11.11
2019-05-18T03:40:31.657Z,11.04
2019-05-18T03:41:31.642Z,11.18
2019-05-18T03:42:31.634Z,11.09
2019-05-18T03:43:31.672Z,11.05
2019-05-18T03:44:31.610Z,10.93
2019-05-18T03:45:31.597Z,11.03
2019-05-18T03:46:31.590Z,11.03
2019-05-18T03:47:31.578Z,11.05
2019-05-18T03:48:31.563Z,11.03
2019-05-18T03:49:31.577Z,11.03
2019-05-18T03:50:31.550Z,11.08
2019-05-18T03:51:31.528Z,10.91
2019-05-18T03:52:31.519Z,11.04
2019-05-18T03:53:31.516Z,11.12
2019-05-18T03:54:31.522Z,11.01
2019-05-18T03:55:31.486Z,11.03
2019-05-18T03:56:31.478Z,11.04
2019-05-18T03:57:31.466Z,11.05
2019-05-18T03:58:31.450Z,11.05
2019-05-18T03:59:31.482Z,11.00
2019-05-18T04:00:31.431Z,11.03
2019-05-18T04:01:31.566Z,10.91
2019-05-18T04:02:31.406Z,10.97
2019-05-18T04:03:31.397Z,10.93
2019-05-18T04:04:31.413Z,10.94
2019-05-18T04:05:31.370Z,10.97
2019-05-18T04:06:31.364Z,11.01
2019-05-18T04:07:31.474Z,10.91
2019-05-18T04:08:31.340Z,11.09
2019-05-18T04:09:31.377Z,11.01
2019-05-18T04:10:31.314Z,11.09
2019-05-18T04:11:31.302Z,11.03
2019-05-18T04:12:31.292Z,11.13
2019-05-18T04:13:31.280Z,11.00
2019-05-18T04:14:31.293Z,11.05
2019-05-18T04:15:31.273Z,11.09
2019-05-18T04:16:31.243Z,10.94
2019-05-18T04:17:31.234Z,11.12
2019-05-18T04:18:31.249Z,11.08
2019-05-18T04:19:45.601Z,11.09
2019-05-18T04:20:32.200Z,10.95
2019-05-18T04:21:31.191Z,11.13
2019-05-18T04:22:31.183Z,11.08
2019-05-18T04:23:31.169Z,11.05
2019-05-18T04:24:31.190Z,11.09
2019-05-18T04:25:31.149Z,11.04
2019-05-18T04:26:31.140Z,11.01
2019-05-18T04:27:31.129Z,11.13
2019-05-18T04:28:31.121Z,11.12
2019-05-18T04:29:31.140Z,11.11
2019-05-18T04:30:31.094Z,10.94
2019-05-18T04:31:32.471Z,11.13
2019-05-18T04:32:31.070Z,11.22
2019-05-18T04:33:31.069Z,11.05
2019-05-18T04:34:31.043Z,11.11
2019-05-18T04:35:31.054Z,11.05
2019-05-18T04:36:31.023Z,11.16
2019-05-18T04:37:31.013Z,11.12
2019-05-18T04:38:30.996Z,11.20
2019-05-18T04:39:30.991Z,11.18
2019-05-18T04:40:31.007Z,11.27
2019-05-18T04:41:30.977Z,11.31
2019-05-18T04:42:30.948Z,11.27
2019-05-18T04:43:30.956Z,11.22
2019-05-18T04:44:30.929Z,11.33
2019-05-18T04:45:30.948Z,11.31
2019-05-18T04:46:30.913Z,11.30
2019-05-18T04:47:30.898Z,11.22
2019-05-18T04:48:30.883Z,11.23
2019-05-18T04:49:30.875Z,11.22
2019-05-18T04:50:30.890Z,11.28
2019-05-18T04:51:30.853Z,11.41
2019-05-18T04:52:30.847Z,11.33
2019-05-18T04:53:30.826Z,11.36
2019-05-18T04:54:30.820Z,11.40
2019-05-18T04:55:30.833Z,11.30
2019-05-18T04:56:30.793Z,11.45
2019-05-18T04:57:30.783Z,11.33
2019-05-18T04:58:30.772Z,11.45
2019-05-18T04:59:30.765Z,11.40
2019-05-18T05:00:30.794Z,11.55
2019-05-18T05:01:30.778Z,11.31
2019-05-18T05:02:30.727Z,11.40
2019-05-18T05:03:30.717Z,11.49
2019-05-18T05:04:30.701Z,11.40
2019-05-18T05:05:30.695Z,11.54
2019-05-18T05:06:30.901Z,11.52
2019-05-18T05:07:30.672Z,11.55
2019-05-18T05:08:30.791Z,11.59
2019-05-18T05:09:30.652Z,11.58
2019-05-18T05:10:30.674Z,11.58
2019-05-18T05:11:30.661Z,11.62
2019-05-18T05:12:30.613Z,11.64
2019-05-18T05:13:30.599Z,11.52
2019-05-18T05:14:30.661Z,11.58
2019-05-18T05:15:30.576Z,11.66
2019-05-18T05:16:30.708Z,11.61
2019-05-18T05:17:30.560Z,11.56
2019-05-18T05:18:30.592Z,11.67
2019-05-18T05:19:30.533Z,11.80
2019-05-18T05:20:30.578Z,11.93
2019-05-18T05:21:30.546Z,12.26
2019-05-18T05:22:30.552Z,12.33
2019-05-18T05:23:30.491Z,12.58
2019-05-18T05:24:30.536Z,12.59
2019-05-18T05:25:30.464Z,12.65
2019-05-18T05:26:30.501Z,12.63
2019-05-18T05:27:30.476Z,12.77
2019-05-18T05:29:31.537Z,12.88
2019-05-18T05:30:30.421Z,13.13
2019-05-18T05:31:30.420Z,13.19
2019-05-18T05:32:30.415Z,13.49
2019-05-18T05:33:30.434Z,13.55
2019-05-18T05:34:30.363Z,13.78
2019-05-18T05:35:30.357Z,13.85
2019-05-18T05:36:30.350Z,13.83
2019-05-18T05:37:30.377Z,13.78
2019-05-18T05:38:30.319Z,13.90
2019-05-18T05:39:30.315Z,13.86
2019-05-18T05:40:30.303Z,13.97
2019-05-18T05:41:30.294Z,13.98
2019-05-18T05:42:30.277Z,14.08
2019-05-18T05:43:30.288Z,14.16
2019-05-18T05:44:30.253Z,14.16
2019-05-18T05:45:30.250Z,14.23
2019-05-18T05:46:30.233Z,14.28
2019-05-18T05:47:30.221Z,14.31
2019-05-18T05:48:30.232Z,14.27
2019-05-18T05:49:30.199Z,14.23
2019-05-18T05:50:36.030Z,14.15
2019-05-18T05:51:31.179Z,14.26
2019-05-18T05:52:30.168Z,14.44
2019-05-18T05:53:30.199Z,14.33
2019-05-18T05:54:30.143Z,14.37
2019-05-18T05:55:30.128Z,14.51
2019-05-18T05:56:30.124Z,14.41
2019-05-18T05:57:30.113Z,14.22
2019-05-18T05:58:30.131Z,14.15
2019-05-18T05:59:30.088Z,13.97
2019-05-18T06:00:30.087Z,13.82
2019-05-18T06:01:30.064Z,13.73
2019-05-18T06:02:30.064Z,13.75
2019-05-18T06:03:30.081Z,13.68
2019-05-18T06:04:30.032Z,13.71
2019-05-18T06:05:30.017Z,13.60
2019-05-18T06:06:30.012Z,13.54
2019-05-18T06:07:30.002Z,13.54
2019-05-18T06:08:30.016Z,13.42
2019-05-18T06:09:29.977Z,13.45
2019-05-18T06:10:29.970Z,13.43
2019-05-18T06:11:29.954Z,13.47
2019-05-18T06:12:29.947Z,13.46
2019-05-18T06:13:30.083Z,13.42
2019-05-18T06:14:29.920Z,13.40
2019-05-18T06:15:29.912Z,13.26
2019-05-18T06:16:29.899Z,13.27
2019-05-18T06:17:29.888Z,13.36
2019-05-18T06:18:29.912Z,13.35
2019-05-18T06:19:29.894Z,13.43
2019-05-18T06:20:29.856Z,13.36
2019-05-18T06:21:29.841Z,13.32
2019-05-18T06:22:29.831Z,13.26
2019-05-18T06:23:29.933Z,13.39
2019-05-18T06:24:29.818Z,13.45
2019-05-18T06:25:34.044Z,13.47
2019-05-18T06:26:29.797Z,13.35
2019-05-18T06:28:30.909Z,13.53
2019-05-18T06:29:29.878Z,13.43
2019-05-18T06:30:29.792Z,13.58
2019-05-18T06:31:29.741Z,13.58
2019-05-18T06:32:29.725Z,13.67
2019-05-18T06:33:29.727Z,13.57
2019-05-18T06:34:29.725Z,13.68
2019-05-18T06:35:29.691Z,13.63
2019-05-18T06:36:29.678Z,13.72
2019-05-18T06:37:29.662Z,13.83
2019-05-18T06:38:29.654Z,13.67
2019-05-18T06:39:29.667Z,13.79
2019-05-18T06:40:29.632Z,13.83
2019-05-18T06:41:29.623Z,13.72
2019-05-18T06:42:29.610Z,13.93
2019-05-18T06:43:29.600Z,13.86
2019-05-18T06:44:29.611Z,13.93
2019-05-18T06:45:29.587Z,13.93
2019-05-18T06:46:29.576Z,14.08
2019-05-18T06:47:29.559Z,14.04
2019-05-18T06:48:29.553Z,14.04
2019-05-18T06:49:29.567Z,14.18
2019-05-18T06:50:29.521Z,14.19
2019-05-18T06:51:29.511Z,14.22
2019-05-18T06:52:29.499Z,14.27
2019-05-18T06:53:29.489Z,14.34
2019-05-18T06:54:29.475Z,14.41
2019-05-18T06:55:29.488Z,14.30
2019-05-18T06:56:29.457Z,14.37
2019-05-18T06:57:29.445Z,14.38
2019-05-18T06:58:29.431Z,14.48
2019-05-18T06:59:29.419Z,14.44
2019-05-18T07:00:29.437Z,14.49
2019-05-18T07:01:29.460Z,14.59
2019-05-18T07:02:29.384Z,14.59
2019-05-18T07:03:29.406Z,14.63
2019-05-18T07:04:29.361Z,14.71
2019-05-18T07:05:29.382Z,14.74
2019-05-18T07:06:29.348Z,14.69
2019-05-18T07:07:29.332Z,14.85
2019-05-18T07:08:29.314Z,14.71
2019-05-18T07:09:29.304Z,14.78
2019-05-18T07:10:29.329Z,14.90
2019-05-18T07:11:29.289Z,14.89
2019-05-18T07:12:29.271Z,14.93
2019-05-18T07:13:29.268Z,14.96
2019-05-18T07:14:29.257Z,14.93
2019-05-18T07:15:29.287Z,14.97
2019-05-18T07:16:29.268Z,15.11
2019-05-18T07:17:29.223Z,14.97
2019-05-18T07:18:29.209Z,15.11
2019-05-18T07:19:29.192Z,15.20
2019-05-18T07:20:29.210Z,15.26
2019-05-18T07:21:29.164Z,15.35
2019-05-18T07:22:29.153Z,15.25
2019-05-18T07:23:29.145Z,15.43
2019-05-18T07:24:29.168Z,15.35
2019-05-18T07:25:29.155Z,15.41
2019-05-18T07:26:29.217Z,15.38
2019-05-18T07:27:29.104Z,15.56
2019-05-18T07:28:29.099Z,15.54
2019-05-18T07:29:29.088Z,15.47
2019-05-18T07:30:29.155Z,15.52
2019-05-18T07:31:29.056Z,15.41
2019-05-18T07:32:29.040Z,15.45
2019-05-18T07:33:29.030Z,15.59
2019-05-18T07:34:29.050Z,15.51
2019-05-18T07:35:29.055Z,15.68
2019-05-18T07:36:29.089Z,15.66
2019-05-18T07:37:29.013Z,15.76
2019-05-18T07:38:28.969Z,15.81
2019-05-18T07:39:28.963Z,15.83
2019-05-18T07:40:28.952Z,15.90
2019-05-18T07:41:28.938Z,15.91
2019-05-18T07:42:28.956Z,15.95
2019-05-18T07:43:28.917Z,15.90
2019-05-18T07:44:28.904Z,15.98
2019-05-18T07:45:28.893Z,16.09
2019-05-18T07:46:28.921Z,16.09
2019-05-18T07:47:28.909Z,16.10
2019-05-18T07:48:28.858Z,16.18
2019-05-18T07:49:28.852Z,16.17
2019-05-18T07:50:28.844Z,16.16
2019-05-18T07:51:36.660Z,16.21
2019-05-18T07:52:29.845Z,16.25
2019-05-18T07:53:28.808Z,16.34
2019-05-18T07:54:28.800Z,16.52
2019-05-18T07:55:28.794Z,16.49
2019-05-18T07:56:28.796Z,16.43
2019-05-18T07:57:28.761Z,16.52
2019-05-18T07:58:28.743Z,16.51
2019-05-18T07:59:28.741Z,16.58
2019-05-18T08:00:28.735Z,16.70
2019-05-18T08:01:28.747Z,16.70
2019-05-18T08:02:28.725Z,16.82
2019-05-18T08:03:28.697Z,16.88
2019-05-18T08:04:28.679Z,16.87
2019-05-18T08:05:28.671Z,16.95
2019-05-18T08:06:28.686Z,17.12
2019-05-18T08:07:28.661Z,17.01
2019-05-18T08:08:28.643Z,17.07
2019-05-18T08:09:28.628Z,17.13
2019-05-18T08:10:28.618Z,17.22
2019-05-18T08:11:28.627Z,17.12
2019-05-18T08:12:28.619Z,17.27
2019-05-18T08:13:28.577Z,17.31
2019-05-18T08:14:28.570Z,17.24
2019-05-18T08:15:28.563Z,17.28
2019-05-18T08:16:28.579Z,17.46
2019-05-18T08:17:28.568Z,17.43
2019-05-18T08:18:28.523Z,17.45
2019-05-18T08:19:28.514Z,17.54
2019-05-18T08:20:28.499Z,17.62
2019-05-18T08:21:28.514Z,17.59
2019-05-18T08:22:28.506Z,17.72
2019-05-18T08:23:28.470Z,17.73
2019-05-18T08:24:28.462Z,17.52
2019-05-18T08:25:28.455Z,17.66
2019-05-18T08:26:28.431Z,17.71
2019-05-18T08:27:28.441Z,17.76
2019-05-18T08:28:28.406Z,17.86
2019-05-18T08:29:28.398Z,17.86
2019-05-18T08:30:28.383Z,17.90
2019-05-18T08:31:28.371Z,17.94
2019-05-18T08:32:28.412Z,17.94
2019-05-18T08:33:28.379Z,17.93
2019-05-18T08:34:28.342Z,17.87
2019-05-18T08:35:28.350Z,18.02
2019-05-18T08:36:28.318Z,17.97
2019-05-18T08:37:28.309Z,17.96
2019-05-18T08:38:28.325Z,18.05
2019-05-18T08:39:28.286Z,18.08
2019-05-18T08:40:28.275Z,18.15
2019-05-18T08:41:28.272Z,18.23
2019-05-18T08:42:28.259Z,18.30
2019-05-18T08:43:28.268Z,18.26
2019-05-18T08:44:28.229Z,18.30
2019-05-18T08:45:28.240Z,18.46
2019-05-18T08:46:28.209Z,18.48
2019-05-18T08:47:28.198Z,18.45
2019-05-18T08:48:28.219Z,18.51
2019-05-18T08:49:28.173Z,18.54
2019-05-18T08:50:28.171Z,18.52
2019-05-18T08:51:28.155Z,18.57
2019-05-18T08:52:28.142Z,18.58
2019-05-18T08:53:28.163Z,18.57
2019-05-18T08:54:28.119Z,18.60
2019-05-18T08:55:28.105Z,18.63
2019-05-18T08:56:28.099Z,18.74
2019-05-18T08:57:28.084Z,18.68
2019-05-18T08:58:28.099Z,18.76
2019-05-18T08:59:28.061Z,18.70
2019-05-18T09:00:28.060Z,18.88
2019-05-18T09:01:28.040Z,18.98
2019-05-18T09:02:28.026Z,18.97
2019-05-18T09:03:28.075Z,18.97
2019-05-18T09:04:28.032Z,19.00
2019-05-18T09:05:28.006Z,19.07
2019-05-18T09:06:27.981Z,19.05
2019-05-18T09:07:27.982Z,19.05
2019-05-18T09:08:27.961Z,19.07
2019-05-18T09:09:27.971Z,19.09
2019-05-18T09:10:27.949Z,19.08
2019-05-18T09:11:27.934Z,19.13
2019-05-18T09:12:27.965Z,19.07
2019-05-18T09:13:27.905Z,19.31
2019-05-18T09:14:27.935Z,19.13
2019-05-18T09:15:27.880Z,19.22
2019-05-18T09:16:27.904Z,19.23
2019-05-18T09:17:27.864Z,19.37
2019-05-18T09:18:27.859Z,19.32
2019-05-18T09:19:27.869Z,19.31
2019-05-18T09:20:27.835Z,19.24
2019-05-18T09:21:27.814Z,19.30
2019-05-18T09:22:27.814Z,19.32
2019-05-18T09:23:27.792Z,19.24
2019-05-18T09:24:27.816Z,19.32
2019-05-18T09:25:27.776Z,19.30
2019-05-18T09:26:27.782Z,19.24
2019-05-18T09:27:27.760Z,19.22
2019-05-18T09:28:27.753Z,19.27
2019-05-18T09:29:27.737Z,19.38
2019-05-18T09:30:27.754Z,19.45
2019-05-18T09:31:27.704Z,19.42
2019-05-18T09:32:27.692Z,19.50
2019-05-18T09:33:27.679Z,19.54
2019-05-18T09:34:27.700Z,19.52
2019-05-18T09:35:27.687Z,19.67
2019-05-18T09:36:27.645Z,19.64
2019-05-18T09:37:27.642Z,19.71
2019-05-18T09:38:27.628Z,19.70
2019-05-18T09:39:27.618Z,19.81
2019-05-18T09:40:27.713Z,19.87
2019-05-18T09:41:27.595Z,19.90
2019-05-18T09:42:27.589Z,19.84
2019-05-18T09:43:27.582Z,19.93
2019-05-18T09:44:27.560Z,20.05
2019-05-18T09:45:27.591Z,19.96
2019-05-18T09:46:27.537Z,20.05
2019-05-18T09:47:27.527Z,20.12
2019-05-18T09:48:27.520Z,20.09
2019-05-18T09:49:27.504Z,20.07
2019-05-18T09:50:27.523Z,20.15
2019-05-18T09:51:27.481Z,20.18
2019-05-18T09:52:44.244Z,20.25
2019-05-18T09:53:30.145Z,20.41
2019-05-18T09:54:27.466Z,20.44
2019-05-18T09:55:27.459Z,20.48
2019-05-18T09:56:27.422Z,20.44
2019-05-18T09:57:27.420Z,20.44
2019-05-18T09:58:27.405Z,20.68
2019-05-18T09:59:27.395Z,20.71
2019-05-18T10:00:27.432Z,20.65
2019-05-18T10:01:27.379Z,20.73
2019-05-18T10:02:27.362Z,20.75
2019-05-18T10:03:27.354Z,20.82
2019-05-18T10:04:27.334Z,20.67
2019-05-18T10:05:27.379Z,20.79
2019-05-18T10:06:27.319Z,20.74
2019-05-18T10:07:27.304Z,20.83
2019-05-18T10:08:27.302Z,20.86
2019-05-18T10:09:37.002Z,20.86
2019-05-18T10:10:28.294Z,20.86
2019-05-18T10:11:27.272Z,20.86
2019-05-18T10:12:27.272Z,20.95
2019-05-18T10:13:27.234Z,20.90
2019-05-18T10:14:27.231Z,20.86
2019-05-18T10:15:27.255Z,21.00
2019-05-18T10:16:27.230Z,21.07
2019-05-18T10:17:27.195Z,21.08
2019-05-18T10:18:27.191Z,21.05
2019-05-18T10:19:27.199Z,21.19
2019-05-18T10:20:27.188Z,21.25
2019-05-18T10:21:27.162Z,21.23
2019-05-18T10:22:27.141Z,21.26
2019-05-18T10:23:27.133Z,21.30
2019-05-18T10:24:27.125Z,21.34
2019-05-18T10:25:27.156Z,21.40
2019-05-18T10:26:27.116Z,21.38
2019-05-18T10:27:27.124Z,21.41
2019-05-18T10:28:27.074Z,21.59
2019-05-18T10:29:27.064Z,21.55
2019-05-18T10:30:27.053Z,21.53
2019-05-18T10:31:27.226Z,21.48
2019-05-18T10:32:27.023Z,21.55
2019-05-18T10:33:27.020Z,21.45
2019-05-18T10:34:27.013Z,21.45
2019-05-18T10:35:26.994Z,21.47
2019-05-18T10:36:27.020Z,21.35
2019-05-18T10:37:27.000Z,21.40
2019-05-18T10:38:26.976Z,21.20
2019-05-18T10:39:26.951Z,21.13
2019-05-18T10:40:26.941Z,21.08
2019-05-18T10:41:26.974Z,21.07
2019-05-18T10:42:26.940Z,21.01
2019-05-18T10:43:26.939Z,20.95
2019-05-18T10:44:26.888Z,20.97
2019-05-18T10:45:26.878Z,20.97
2019-05-18T10:46:26.908Z,21.04
2019-05-18T10:47:26.878Z,21.08
2019-05-18T10:48:26.851Z,21.03
2019-05-18T10:49:26.836Z,21.05
2019-05-18T10:50:26.833Z,20.88
2019-05-18T10:51:26.812Z,21.00
2019-05-18T10:52:26.847Z,21.14
2019-05-18T10:53:29.030Z,21.14
2019-05-18T10:54:26.778Z,21.01
2019-05-18T10:55:26.918Z,21.08
2019-05-18T10:56:26.770Z,21.19
2019-05-18T10:57:26.753Z,21.20
2019-05-18T10:58:26.770Z,21.26
2019-05-18T10:59:26.727Z,21.28
2019-05-18T11:00:26.715Z,21.23
2019-05-18T11:01:26.710Z,21.23
2019-05-18T11:02:26.724Z,21.34
2019-05-18T11:03:26.704Z,21.25
2019-05-18T11:04:26.668Z,21.35
2019-05-18T11:05:26.664Z,21.40
2019-05-18T11:06:26.647Z,21.38
2019-05-18T11:07:28.959Z,21.51
2019-05-18T11:08:26.673Z,21.53
2019-05-18T11:09:26.626Z,21.69
2019-05-18T11:10:26.599Z,21.78
2019-05-18T11:11:26.606Z,21.81
2019-05-18T11:12:26.575Z,21.91
2019-05-18T11:13:26.595Z,22.00
2019-05-18T11:14:26.575Z,22.07
2019-05-18T11:15:26.564Z,22.21
2019-05-18T11:16:26.541Z,22.34
2019-05-18T11:17:26.546Z,22.33
2019-05-18T11:18:26.528Z,22.37
2019-05-18T11:19:26.493Z,22.37
2019-05-18T11:20:26.495Z,22.40
2019-05-18T11:21:26.475Z,22.40
2019-05-18T11:22:26.459Z,22.36
2019-05-18T11:23:26.478Z,22.51
2019-05-18T11:24:26.437Z,22.59
2019-05-18T11:25:26.440Z,22.64
2019-05-18T11:26:26.419Z,22.52
2019-05-18T11:27:26.403Z,22.56
2019-05-18T11:28:26.437Z,22.49
2019-05-18T11:29:26.391Z,22.58
2019-05-18T11:30:26.427Z,22.56
2019-05-18T11:31:26.359Z,22.73
2019-05-18T11:32:26.389Z,22.71
2019-05-18T11:33:26.367Z,22.73
2019-05-18T11:34:26.495Z,22.80
2019-05-18T11:35:26.319Z,22.88
2019-05-18T11:36:26.400Z,22.95
2019-05-18T11:37:26.291Z,22.99
2019-05-18T11:38:26.475Z,22.99
2019-05-18T11:39:26.272Z,23.07
2019-05-18T11:40:26.378Z,22.98
2019-05-18T11:41:26.253Z,23.11
2019-05-18T11:42:26.306Z,22.93
2019-05-18T11:43:26.248Z,22.80
2019-05-18T11:44:26.227Z,22.89
2019-05-18T11:45:26.206Z,22.93
2019-05-18T11:46:26.235Z,23.03
2019-05-18T11:47:26.196Z,23.07
2019-05-18T11:48:26.300Z,23.23
2019-05-18T11:49:29.057Z,23.25
2019-05-18T11:50:26.232Z,23.26
2019-05-18T11:51:26.135Z,23.37
2019-05-18T11:52:26.174Z,23.42
2019-05-18T11:53:26.112Z,23.34
2019-05-18T11:54:26.190Z,23.39
2019-05-18T11:55:26.129Z,23.34
2019-05-18T11:56:26.082Z,23.36
2019-05-18T11:57:26.084Z,23.17
2019-05-18T11:58:26.088Z,23.11
2019-05-18T11:59:26.097Z,23.03
2019-05-18T12:00:26.039Z,22.93
2019-05-18T12:01:26.020Z,23.01
2019-05-18T12:02:26.016Z,22.91
2019-05-18T12:03:26.031Z,22.89
2019-05-18T12:04:26.015Z,22.92
2019-05-18T12:05:25.981Z,22.81
2019-05-18T12:06:25.973Z,22.77
2019-05-18T12:07:25.959Z,22.81
2019-05-18T12:08:25.944Z,22.80
2019-05-18T12:09:25.950Z,22.78
2019-05-18T12:10:25.953Z,22.86
2019-05-18T12:11:25.911Z,22.92
2019-05-18T12:12:25.907Z,22.95
2019-05-18T12:13:25.887Z,23.10
2019-05-18T12:14:25.882Z,23.18
2019-05-18T12:15:25.901Z,23.26
2019-05-18T12:16:25.871Z,23.13
2019-05-18T12:17:25.940Z,23.18
2019-05-18T12:18:25.832Z,23.18
2019-05-18T12:19:25.840Z,23.18
2019-05-18T12:20:25.836Z,23.08
2019-05-18T12:21:25.809Z,23.10
2019-05-18T12:22:25.792Z,23.18
2019-05-18T12:23:25.773Z,23.39
2019-05-18T12:24:25.776Z,23.39
2019-05-18T12:25:25.787Z,23.49
2019-05-18T12:26:25.740Z,23.56
2019-05-18T12:27:25.747Z,23.71
2019-05-18T12:28:25.723Z,23.49
2019-05-18T12:29:25.711Z,23.54
2019-05-18T12:30:25.734Z,23.41
2019-05-18T12:31:25.685Z,23.34
2019-05-18T12:32:25.677Z,23.28
2019-05-18T12:33:25.659Z,23.14
2019-05-18T12:34:25.652Z,23.07
2019-05-18T12:35:25.672Z,23.13
2019-05-18T12:36:25.630Z,22.96
2019-05-18T12:37:25.620Z,23.04
2019-05-18T12:38:25.611Z,23.04
2019-05-18T12:39:25.594Z,23.01
2019-05-18T12:40:25.612Z,22.93
2019-05-18T12:41:25.579Z,22.95
2019-05-18T12:42:25.578Z,22.80
2019-05-18T12:43:25.584Z,22.86
2019-05-18T12:44:25.602Z,22.98
2019-05-18T12:45:25.655Z,22.98
2019-05-18T12:46:25.540Z,23.01
2019-05-18T12:47:25.518Z,23.17
2019-05-18T12:48:25.497Z,23.29
2019-05-18T12:49:25.487Z,23.51
2019-05-18T12:50:25.508Z,23.60
2019-05-18T12:51:25.532Z,23.67
2019-05-18T12:52:25.452Z,23.79
2019-05-18T12:53:25.453Z,23.74
2019-05-18T12:54:30.874Z,23.94